Time;durP1;ratioP1;P1;durP2;ratioP2;P2;SDS_P1;SDS_P2;PMS_P1;PMS_P2;Temp;Humidity;BMP_temperature;BMP_pressure;BME280_temperature;BME280_humidity;BME280_pressure;Samples;Min_cycle;Max_cycle;Signal;HPM_P1;HPM_P2
2023/09/12 00:01:59;;;;;;;11.77;8.70;;;21.10;99.90;;;;;;4995766;28;20080;-74
2023/09/12 00:04:25;;;;;;;12.48;8.32;;;21.10;99.90;;;;;;4989612;28;20033;-74
2023/09/12 00:06:50;;;;;;;11.98;8.02;;;21.20;99.90;;;;;;4990125;28;20553;-74
2023/09/12 00:09:16;;;;;;;12.60;8.80;;;20.90;99.90;;;;;;4989607;28;20032;-74
2023/09/12 00:11:42;;;;;;;12.25;8.55;;;20.70;99.90;;;;;;4994449;28;20028;-73
2023/09/12 00:14:09;;;;;;;12.07;8.90;;;20.60;99.90;;;;;;4989879;28;20033;-73
2023/09/12 00:16:35;;;;;;;11.90;8.63;;;20.70;99.90;;;;;;4993249;28;20482;-74
2023/09/12 00:19:00;;;;;;;19.25;8.60;;;20.60;99.90;;;;;;4989635;28;20109;-74
2023/09/12 00:21:26;;;;;;;11.63;8.05;;;20.40;99.90;;;;;;4995739;28;20102;-73
2023/09/12 00:23:52;;;;;;;14.90;8.85;;;20.20;99.90;;;;;;4988803;28;20041;-74
2023/09/12 00:26:17;;;;;;;13.90;9.13;;;20.10;99.90;;;;;;4992755;28;20396;-73
2023/09/12 00:28:43;;;;;;;15.35;9.95;;;20.10;99.90;;;;;;4989422;28;20041;-73
2023/09/12 00:31:08;;;;;;;12.93;8.75;;;20.20;99.90;;;;;;4991442;28;20030;-73
2023/09/12 00:33:34;;;;;;;14.27;8.60;;;20.30;99.90;;;;;;4988777;28;20045;-73
2023/09/12 00:36:00;;;;;;;14.15;9.68;;;20.50;99.90;;;;;;4990146;28;20038;-74
2023/09/12 00:38:25;;;;;;;13.70;8.20;;;20.50;99.90;;;;;;4990004;28;20045;-73
2023/09/12 00:40:51;;;;;;;14.50;9.00;;;20.50;99.90;;;;;;4989819;28;20030;-74
2023/09/12 00:43:16;;;;;;;11.90;8.18;;;20.50;99.90;;;;;;4989182;28;20053;-74
2023/09/12 00:45:42;;;;;;;11.77;8.27;;;20.50;99.90;;;;;;4988235;28;20380;-73
2023/09/12 00:48:09;;;;;;;10.48;8.20;;;20.50;99.90;;;;;;4990037;28;20531;-73
2023/09/12 00:50:36;;;;;;;14.43;8.93;;;20.50;99.90;;;;;;4995791;28;20038;-73
2023/09/12 00:53:03;;;;;;;11.68;8.88;;;20.50;99.90;;;;;;4992166;28;20037;-73
2023/09/12 00:55:30;;;;;;;11.15;8.02;;;20.50;99.90;;;;;;4988424;28;20026;-73
2023/09/12 00:57:56;;;;;;;10.10;8.65;;;20.40;99.90;;;;;;4995707;28;20046;-73
2023/09/12 01:00:22;;;;;;;12.23;8.57;;;20.50;99.90;;;;;;4996221;28;20045;-73
2023/09/12 01:02:49;;;;;;;9.98;7.70;;;20.50;99.90;;;;;;4990805;28;20543;-74
2023/09/12 01:05:16;;;;;;;13.18;9.85;;;20.40;99.90;;;;;;4996121;28;20050;-73
2023/09/12 01:07:43;;;;;;;11.75;8.30;;;20.40;99.90;;;;;;4991193;28;20033;-73
2023/09/12 01:10:09;;;;;;;14.18;8.88;;;20.30;99.90;;;;;;4991692;28;20023;-74
2023/09/12 01:12:36;;;;;;;14.02;9.43;;;20.10;99.90;;;;;;4989290;28;20121;-73
2023/09/12 01:15:05;;;;;;;11.30;8.23;;;20.10;99.90;;;;;;4992699;28;20053;-74
2023/09/12 01:17:31;;;;;;;11.32;9.43;;;20.00;99.90;;;;;;4993163;28;20042;-74
2023/09/12 01:19:57;;;;;;;11.23;9.23;;;20.00;99.90;;;;;;4995593;28;20554;-74
2023/09/12 01:22:45;;;;;;;19.10;9.48;;;19.90;99.90;;;;;;4997954;28;20026;-74
2023/09/12 01:25:42;;;;;;;13.23;8.73;;;19.80;99.90;;;;;;4992342;28;20065;-73
2023/09/12 01:28:10;;;;;;;13.68;8.50;;;19.90;99.90;;;;;;4944857;28;20042;-73
2023/09/12 01:30:38;;;;;;;11.23;9.13;;;20.00;99.90;;;;;;4992781;28;20038;-73
2023/09/12 01:33:04;;;;;;;14.45;9.27;;;20.00;99.90;;;;;;5000021;28;20054;-73
2023/09/12 01:35:30;;;;;;;15.27;9.48;;;20.00;99.90;;;;;;4992228;28;20058;-74
2023/09/12 01:37:56;;;;;;;12.88;8.63;;;20.00;99.90;;;;;;5002505;28;20054;-73
2023/09/12 01:40:36;;;;;;;11.80;8.82;;;20.00;99.90;;;;;;4994699;28;20029;-73
2023/09/12 01:43:05;;;;;;;13.02;8.85;;;19.80;99.90;;;;;;4994257;28;20038;-73
2023/09/12 01:45:31;;;;;;;16.83;9.95;;;19.70;99.90;;;;;;4991577;28;20081;-73
2023/09/12 01:47:58;;;;;;;12.50;9.73;;;19.60;99.90;;;;;;4992277;28;20068;-74
2023/09/12 01:50:27;;;;;;;11.82;9.80;;;19.50;99.90;;;;;;5000941;28;20192;-73
2023/09/12 01:52:53;;;;;;;13.65;9.57;;;19.40;99.90;;;;;;4997480;28;20435;-73
2023/09/12 01:55:20;;;;;;;15.88;9.43;;;19.30;99.90;;;;;;4991948;28;20030;-73
2023/09/12 01:57:47;;;;;;;18.08;9.88;;;19.20;99.90;;;;;;4997970;28;20046;-73
2023/09/12 02:00:13;;;;;;;11.35;9.05;;;19.20;99.90;;;;;;4996830;28;20022;-73
2023/09/12 02:02:39;;;;;;;12.75;8.60;;;19.30;99.90;;;;;;4993521;28;20484;-73
2023/09/12 02:05:18;;;;;;;14.75;10.18;;;19.30;99.90;;;;;;4998034;28;20018;-74
2023/09/12 02:07:44;;;;;;;15.32;10.07;;;19.40;99.90;;;;;;4995066;28;20026;-73
2023/09/12 02:10:09;;;;;;;16.50;10.35;;;19.40;99.90;;;;;;4997851;28;20117;-74
2023/09/12 02:12:36;;;;;;;11.30;8.57;;;19.40;99.90;;;;;;4999472;28;20547;-73
2023/09/12 02:15:01;;;;;;;12.88;9.77;;;19.50;99.90;;;;;;4995234;28;20026;-73
2023/09/12 02:17:27;;;;;;;13.07;9.27;;;19.60;99.90;;;;;;4992082;28;20112;-73
2023/09/12 02:19:53;;;;;;;13.60;9.07;;;19.50;99.90;;;;;;4993218;28;20031;-74
2023/09/12 02:22:18;;;;;;;18.92;10.05;;;19.50;99.90;;;;;;4992262;28;20444;-74
2023/09/12 02:24:44;;;;;;;18.20;11.23;;;19.60;99.90;;;;;;4998527;28;20160;-73
2023/09/12 02:27:10;;;;;;;11.48;8.77;;;19.80;99.90;;;;;;4993049;28;20084;-73
2023/09/12 02:29:36;;;;;;;13.30;9.40;;;19.70;99.90;;;;;;4993265;28;20080;-73
2023/09/12 02:32:02;;;;;;;15.27;9.95;;;19.70;99.90;;;;;;4994971;28;20042;-74
2023/09/12 02:34:28;;;;;;;13.68;10.27;;;19.60;99.90;;;;;;4997519;28;20049;-73
2023/09/12 02:36:54;;;;;;;15.75;10.55;;;19.60;99.90;;;;;;4993768;28;20476;-74
2023/09/12 02:39:19;;;;;;;15.27;9.82;;;19.50;99.90;;;;;;4996739;28;20034;-74
2023/09/12 02:41:45;;;;;;;14.20;10.27;;;19.40;99.90;;;;;;4992556;28;20026;-73
2023/09/12 02:44:10;;;;;;;14.70;9.82;;;19.40;99.90;;;;;;4990720;28;20030;-73
2023/09/12 02:46:37;;;;;;;14.23;9.93;;;19.40;99.90;;;;;;4991440;28;20026;-73
2023/09/12 02:49:03;;;;;;;15.38;10.10;;;19.50;99.90;;;;;;4993420;28;20493;-74
2023/09/12 02:51:29;;;;;;;14.05;9.68;;;19.70;99.90;;;;;;4992801;28;20116;-73
2023/09/12 02:53:55;;;;;;;12.45;9.77;;;19.70;99.90;;;;;;4997018;28;20026;-74
2023/09/12 02:56:21;;;;;;;13.63;10.65;;;19.70;99.90;;;;;;4994846;28;20042;-74
2023/09/12 02:58:47;;;;;;;13.68;10.55;;;19.60;99.90;;;;;;4992121;28;20042;-73
2023/09/12 03:01:16;;;;;;;15.00;10.82;;;19.60;99.90;;;;;;4991477;28;20026;-72
2023/09/12 03:03:46;;;;;;;15.30;10.52;;;19.40;99.90;;;;;;4987931;28;20038;-73
2023/09/12 03:06:12;;;;;;;13.20;9.88;;;19.40;99.90;;;;;;4991142;28;20049;-72
2023/09/12 03:08:39;;;;;;;13.45;9.73;;;19.40;99.90;;;;;;4987212;28;20030;-73
2023/09/12 03:11:07;;;;;;;13.88;10.63;;;19.50;99.90;;;;;;4992063;28;20393;-73
2023/09/12 03:13:33;;;;;;;13.63;10.15;;;19.50;99.90;;;;;;4985424;28;20165;-72
2023/09/12 03:15:59;;;;;;;14.43;9.40;;;19.70;99.90;;;;;;4985256;28;20033;-72
2023/09/12 03:18:25;;;;;;;16.15;10.90;;;19.80;99.90;;;;;;4988440;28;20558;-72
2023/09/12 03:20:51;;;;;;;15.68;10.45;;;19.80;99.90;;;;;;4984772;28;20067;-72
2023/09/12 03:23:17;;;;;;;15.55;9.93;;;19.80;99.90;;;;;;4984016;28;20034;-73
2023/09/12 03:25:42;;;;;;;14.13;10.20;;;19.70;99.90;;;;;;4986638;28;20027;-73
2023/09/12 03:28:08;;;;;;;15.27;9.98;;;19.80;99.90;;;;;;4991055;28;20460;-73
2023/09/12 03:30:36;;;;;;;12.45;10.05;;;19.70;99.90;;;;;;4986705;28;20036;-72
2023/09/12 03:33:02;;;;;;;12.98;10.18;;;19.60;99.90;;;;;;4988814;28;20069;-72
2023/09/12 03:35:29;;;;;;;15.00;11.15;;;19.50;99.90;;;;;;4992304;28;20058;-73
2023/09/12 03:37:54;;;;;;;14.48;9.82;;;19.50;99.90;;;;;;4984106;28;20350;-73
2023/09/12 03:40:20;;;;;;;13.57;11.18;;;19.50;99.90;;;;;;4996988;28;20033;-73
2023/09/12 03:42:46;;;;;;;15.07;11.00;;;19.10;99.90;;;;;;4986964;28;20030;-73
2023/09/12 03:45:12;;;;;;;12.40;10.18;;;19.20;99.90;;;;;;4998053;28;20135;-72
2023/09/12 03:47:37;;;;;;;14.30;9.45;;;19.20;99.90;;;;;;4987747;28;20042;-72
2023/09/12 03:50:03;;;;;;;14.57;10.13;;;19.30;99.90;;;;;;4990021;28;20037;-72
2023/09/12 03:52:30;;;;;;;14.00;10.35;;;19.30;99.90;;;;;;4990026;28;20615;-73
2023/09/12 03:54:55;;;;;;;14.60;11.48;;;19.30;99.90;;;;;;4990795;28;20030;-74
2023/09/12 03:57:22;;;;;;;12.82;9.98;;;19.40;99.90;;;;;;4990655;28;20049;-72
2023/09/12 03:59:47;;;;;;;15.30;9.50;;;19.50;99.90;;;;;;4986712;28;20030;-72
2023/09/12 04:02:13;;;;;;;15.02;9.93;;;19.50;99.90;;;;;;4989839;28;20129;-73
2023/09/12 04:04:39;;;;;;;14.15;10.57;;;19.40;99.90;;;;;;4982113;28;20081;-73
2023/09/12 04:07:05;;;;;;;12.90;9.93;;;19.30;99.90;;;;;;4984101;28;20117;-73
2023/09/12 04:09:31;;;;;;;12.63;10.50;;;19.30;99.90;;;;;;4983460;28;20027;-73
2023/09/12 04:11:57;;;;;;;14.43;10.65;;;19.20;99.90;;;;;;4987182;28;20121;-72
2023/09/12 04:14:22;;;;;;;14.60;10.45;;;19.20;99.90;;;;;;4981100;28;20444;-72
2023/09/12 04:16:48;;;;;;;14.52;11.20;;;19.20;99.90;;;;;;4983218;28;20046;-72
2023/09/12 04:19:14;;;;;;;17.33;11.20;;;19.30;99.90;;;;;;4984241;28;20626;-72
2023/09/12 04:21:40;;;;;;;12.82;10.70;;;19.30;99.90;;;;;;4986584;28;20031;-73
2023/09/12 04:24:07;;;;;;;16.02;10.80;;;19.30;99.90;;;;;;4984483;28;20098;-72
2023/09/12 04:26:33;;;;;;;14.43;10.43;;;19.30;99.90;;;;;;4984491;28;20076;-72
2023/09/12 04:28:58;;;;;;;14.80;11.05;;;19.30;99.90;;;;;;4982887;28;20606;-72
2023/09/12 04:31:24;;;;;;;14.10;10.52;;;19.30;99.90;;;;;;4985588;28;20064;-72
2023/09/12 04:33:53;;;;;;;14.30;10.00;;;19.30;99.90;;;;;;4983436;28;20337;-72
2023/09/12 04:36:20;;;;;;;12.75;9.57;;;19.30;99.90;;;;;;4980553;28;20060;-72
2023/09/12 04:38:46;;;;;;;14.80;10.23;;;19.30;99.90;;;;;;4983586;28;20030;-72
2023/09/12 04:41:16;;;;;;;14.00;9.88;;;19.10;99.90;;;;;;4983586;28;20030;-73
2023/09/12 04:43:45;;;;;;;15.35;10.23;;;19.20;99.90;;;;;;4983927;28;20250;-72
2023/09/12 04:46:11;;;;;;;14.80;10.82;;;19.30;99.90;;;;;;4986509;28;20034;-72
2023/09/12 04:48:38;;;;;;;17.33;10.85;;;19.20;99.90;;;;;;4987605;28;20060;-72
2023/09/12 04:51:04;;;;;;;18.17;11.35;;;19.30;99.90;;;;;;4983716;28;20030;-73
2023/09/12 04:53:36;;;;;;;15.13;10.50;;;19.30;99.90;;;;;;4983084;28;21030;-73
2023/09/12 04:56:03;;;;;;;12.77;9.70;;;19.20;99.90;;;;;;4982378;28;20412;-73
2023/09/12 04:58:28;;;;;;;14.07;10.25;;;19.20;99.90;;;;;;4984341;28;20117;-73
2023/09/12 05:00:55;;;;;;;15.77;10.38;;;19.20;99.90;;;;;;4987879;28;20031;-72
2023/09/12 05:03:21;;;;;;;14.35;10.40;;;19.10;99.90;;;;;;4988257;28;20054;-72
2023/09/12 05:05:50;;;;;;;13.45;10.43;;;18.80;99.90;;;;;;4983781;28;20034;-72
2023/09/12 05:08:17;;;;;;;14.88;10.82;;;18.80;99.90;;;;;;4985688;28;20019;-72
2023/09/12 05:10:46;;;;;;;15.13;10.13;;;18.70;99.90;;;;;;4984724;28;20029;-72
2023/09/12 05:13:13;;;;;;;15.70;10.38;;;18.60;99.90;;;;;;4986793;28;20046;-72
2023/09/12 05:15:41;;;;;;;17.35;11.43;;;18.60;99.90;;;;;;4980621;28;20041;-74
2023/09/12 05:18:07;;;;;;;19.52;10.65;;;18.80;99.90;;;;;;4988122;28;20042;-72
2023/09/12 05:20:36;;;;;;;19.90;11.35;;;18.80;99.90;;;;;;4983328;28;20030;-72
2023/09/12 05:23:02;;;;;;;15.77;10.80;;;18.80;99.90;;;;;;4988811;28;20042;-73
2023/09/12 05:25:28;;;;;;;17.65;11.07;;;18.80;99.90;;;;;;4992488;28;20136;-73
2023/09/12 05:27:54;;;;;;;14.60;9.55;;;18.80;99.90;;;;;;4984595;28;20034;-74
2023/09/12 05:30:20;;;;;;;15.77;10.55;;;18.80;99.90;;;;;;4985346;28;20048;-74
2023/09/12 05:32:46;;;;;;;16.25;10.60;;;18.80;99.90;;;;;;4988425;28;20027;-73
2023/09/12 05:35:11;;;;;;;16.70;10.50;;;18.80;99.90;;;;;;4983472;28;20042;-72
2023/09/12 05:37:37;;;;;;;14.57;11.40;;;18.80;99.90;;;;;;4986957;28;20042;-75
2023/09/12 05:40:03;;;;;;;16.95;10.90;;;18.80;99.90;;;;;;4991710;28;20045;-73
2023/09/12 05:42:29;;;;;;;14.27;10.85;;;18.70;99.90;;;;;;4981255;28;20177;-73
2023/09/12 05:44:56;;;;;;;16.85;11.55;;;18.70;99.90;;;;;;4985097;28;20592;-74
2023/09/12 05:47:22;;;;;;;17.13;10.68;;;18.60;99.90;;;;;;4991431;28;20117;-73
2023/09/12 05:49:48;;;;;;;16.27;10.32;;;18.60;99.90;;;;;;4982145;28;20084;-73
2023/09/12 05:52:13;;;;;;;16.77;11.43;;;18.60;99.90;;;;;;4986653;28;20415;-73
2023/09/12 05:54:40;;;;;;;11.98;9.60;;;18.60;99.90;;;;;;4988227;28;20545;-72
2023/09/12 05:57:06;;;;;;;15.00;10.88;;;18.60;99.90;;;;;;4983385;28;20038;-74
2023/09/12 05:59:34;;;;;;;13.95;9.70;;;18.70;99.90;;;;;;4982620;28;20030;-74
2023/09/12 06:01:59;;;;;;;12.85;9.82;;;18.80;99.90;;;;;;4985119;28;20739;-74
2023/09/12 06:04:25;;;;;;;15.57;10.45;;;18.80;99.90;;;;;;4986011;28;20033;-74
2023/09/12 06:06:51;;;;;;;16.52;10.18;;;18.90;99.90;;;;;;4993688;28;20637;-74
2023/09/12 06:09:16;;;;;;;13.98;10.75;;;19.00;99.90;;;;;;4983969;28;20033;-74
2023/09/12 06:11:42;;;;;;;16.02;10.63;;;19.10;99.90;;;;;;4987340;28;20038;-74
2023/09/12 06:14:07;;;;;;;13.48;10.20;;;19.20;99.90;;;;;;4986830;28;20116;-74
2023/09/12 06:16:33;;;;;;;16.10;10.68;;;19.20;99.90;;;;;;4994486;28;20372;-74
2023/09/12 06:18:59;;;;;;;14.70;10.77;;;19.20;99.90;;;;;;4988223;28;20033;-74
2023/09/12 06:21:24;;;;;;;16.95;11.10;;;19.30;99.90;;;;;;4989702;28;20061;-74
2023/09/12 06:24:14;;;;;;;16.20;11.15;;;19.30;99.90;;;;;;4992209;28;20504;-74
2023/09/12 06:26:40;;;;;;;13.68;10.52;;;19.40;99.90;;;;;;4995058;28;20030;-74
2023/09/12 06:29:06;;;;;;;22.63;11.07;;;19.50;99.90;;;;;;4988906;28;20037;-74
2023/09/12 06:31:33;;;;;;;17.95;10.43;;;19.50;99.90;;;;;;4987729;28;20098;-75
2023/09/12 06:33:58;;;;;;;16.25;11.20;;;19.50;99.90;;;;;;4987407;28;20040;-75
2023/09/12 06:36:31;;;;;;;16.20;10.73;;;19.50;99.90;;;;;;4987505;28;20035;-74
2023/09/12 06:38:57;;;;;;;16.08;11.00;;;19.50;99.90;;;;;;4991377;28;20038;-75
2023/09/12 06:41:23;;;;;;;12.13;9.38;;;19.50;99.90;;;;;;4987216;28;20030;-75
2023/09/12 06:43:49;;;;;;;14.20;10.45;;;19.60;99.90;;;;;;4986774;28;20511;-75
2023/09/12 06:46:17;;;;;;;12.57;10.00;;;19.60;99.90;;;;;;4987608;28;20034;-75
2023/09/12 06:48:44;;;;;;;14.77;11.30;;;19.70;99.90;;;;;;4992856;28;20061;-75
2023/09/12 06:51:10;;;;;;;16.23;11.18;;;19.90;99.90;;;;;;4988803;28;20030;-75
2023/09/12 06:53:38;;;;;;;12.45;10.02;;;19.90;99.90;;;;;;4986935;28;20037;-75
2023/09/12 06:56:04;;;;;;;14.73;11.13;;;19.90;99.90;;;;;;4989229;28;20043;-75
2023/09/12 06:58:30;;;;;;;17.92;11.60;;;19.90;99.90;;;;;;4989095;28;20532;-74
2023/09/12 07:01:00;;;;;;;13.55;10.50;;;20.90;99.90;;;;;;4987980;28;20089;-75
2023/09/12 07:03:26;;;;;;;13.00;9.77;;;23.10;99.90;;;;;;4993455;28;20022;-74
2023/09/12 07:05:52;;;;;;;15.13;10.10;;;24.40;99.90;;;;;;4991757;28;20088;-75
2023/09/12 07:08:17;;;;;;;14.40;9.13;;;25.20;99.90;;;;;;4989661;28;20038;-75
2023/09/12 07:10:46;;;;;;;15.15;9.90;;;24.90;99.90;;;;;;4993589;28;20158;-75
2023/09/12 07:13:12;;;;;;;14.85;10.30;;;24.40;99.90;;;;;;4993645;28;20027;-74
2023/09/12 07:15:38;;;;;;;15.68;10.68;;;22.90;99.90;;;;;;4988841;28;20485;-74
2023/09/12 07:18:06;;;;;;;14.90;10.73;;;21.90;99.90;;;;;;4993228;28;20085;-75
2023/09/12 07:20:35;;;;;;;16.00;10.15;;;21.40;99.90;;;;;;4992904;28;20022;-75
2023/09/12 07:23:00;;;;;;;14.52;10.18;;;21.10;99.90;;;;;;4988100;28;20037;-74
2023/09/12 07:25:26;;;;;;;13.95;10.02;;;21.10;99.90;;;;;;4989854;28;20046;-75
2023/09/12 07:27:52;;;;;;;12.55;9.80;;;21.10;99.90;;;;;;4988255;28;20036;-75
2023/09/12 07:30:19;;;;;;;12.98;9.40;;;21.20;99.90;;;;;;4998463;28;20111;-75
2023/09/12 07:32:44;;;;;;;14.13;10.10;;;21.10;99.90;;;;;;4990977;28;20065;-74
2023/09/12 07:35:10;;;;;;;12.13;9.80;;;21.20;99.90;;;;;;4997884;28;20131;-74
2023/09/12 07:37:36;;;;;;;14.65;9.75;;;21.20;99.90;;;;;;5002019;28;20057;-74
2023/09/12 07:40:09;;;;;;;13.57;10.00;;;21.30;99.90;;;;;;4991206;28;20049;-74
2023/09/12 07:42:35;;;;;;;16.02;10.68;;;21.40;99.90;;;;;;4994836;28;20025;-74
2023/09/12 07:45:03;;;;;;;15.63;11.32;;;21.50;99.90;;;;;;4988777;28;20034;-74
2023/09/12 07:47:28;;;;;;;15.65;9.20;;;21.50;99.90;;;;;;4992736;28;20022;-75
2023/09/12 07:49:54;;;;;;;12.75;10.32;;;21.50;99.90;;;;;;4988435;28;20041;-74
2023/09/12 07:52:20;;;;;;;22.05;11.20;;;21.50;99.90;;;;;;4993586;28;20028;-74
2023/09/12 07:54:46;;;;;;;15.68;11.18;;;21.50;99.90;;;;;;4986600;28;20528;-74
2023/09/12 07:57:11;;;;;;;17.63;10.20;;;21.50;99.90;;;;;;4993497;28;20109;-73
2023/09/12 07:59:37;;;;;;;14.73;9.02;;;21.50;99.90;;;;;;4985576;28;20030;-74
2023/09/12 08:02:03;;;;;;;15.73;10.77;;;21.60;99.90;;;;;;4986426;28;20034;-75
2023/09/12 08:04:29;;;;;;;15.65;10.02;;;21.60;99.90;;;;;;4988216;28;20143;-74
2023/09/12 08:06:55;;;;;;;12.00;9.52;;;21.70;99.90;;;;;;4991702;28;20022;-74
2023/09/12 08:09:20;;;;;;;16.70;10.20;;;21.70;99.90;;;;;;4988974;28;20030;-74
2023/09/12 08:11:46;;;;;;;16.27;10.30;;;21.70;99.90;;;;;;4988723;28;20515;-74
2023/09/12 08:14:11;;;;;;;13.25;9.10;;;21.70;99.90;;;;;;4991032;28;20030;-75
2023/09/12 08:16:38;;;;;;;13.10;10.27;;;21.80;99.90;;;;;;4990826;28;20045;-76
2023/09/12 08:19:04;;;;;;;17.17;10.63;;;21.90;99.90;;;;;;4993125;28;20034;-76
2023/09/12 08:21:29;;;;;;;16.38;9.35;;;22.10;99.90;;;;;;4988544;28;20591;-74
2023/09/12 08:23:55;;;;;;;23.48;11.02;;;22.10;99.90;;;;;;4988965;28;20030;-75
2023/09/12 08:26:21;;;;;;;16.00;10.25;;;22.30;99.90;;;;;;4990359;28;20102;-74
2023/09/12 08:28:46;;;;;;;16.33;9.98;;;22.30;99.90;;;;;;4983830;28;20097;-75
2023/09/12 08:31:12;;;;;;;14.25;9.55;;;22.40;99.90;;;;;;4983408;28;20790;-76
2023/09/12 08:33:38;;;;;;;14.70;10.02;;;22.50;99.90;;;;;;4985551;28;20029;-75
2023/09/12 08:36:04;;;;;;;17.50;10.65;;;22.50;99.90;;;;;;4991806;28;20053;-76
2023/09/12 08:38:29;;;;;;;17.10;10.70;;;22.50;99.90;;;;;;4997604;28;20131;-75
2023/09/12 08:40:57;;;;;;;13.25;9.10;;;22.70;99.90;;;;;;4985278;28;20807;-77
2023/09/12 08:43:22;;;;;;;28.75;10.70;;;22.80;99.90;;;;;;4986702;28;20089;-75
2023/09/12 08:45:48;;;;;;;18.70;10.35;;;22.70;99.90;;;;;;4986709;28;20034;-75
2023/09/12 08:48:16;;;;;;;18.25;11.18;;;22.70;99.90;;;;;;4985474;28;20033;-78
2023/09/12 08:50:42;;;;;;;18.00;9.93;;;22.90;99.90;;;;;;4992035;28;20038;-76
2023/09/12 08:53:07;;;;;;;21.35;10.30;;;23.00;99.90;;;;;;4985850;28;20480;-78
2023/09/12 08:55:35;;;;;;;14.38;10.05;;;23.00;99.90;;;;;;4983478;28;20704;-77
2023/09/12 08:58:02;;;;;;;22.85;10.57;;;23.20;99.90;;;;;;4983683;28;20038;-77
2023/09/12 09:00:29;;;;;;;18.00;10.65;;;23.40;99.90;;;;;;4984007;28;20121;-76
2023/09/12 09:02:55;;;;;;;13.65;9.55;;;25.10;99.90;;;;;;4987557;28;20037;-77
2023/09/12 09:05:23;;;;;;;17.88;10.13;;;27.50;97.90;;;;;;4981651;28;20034;-77
2023/09/12 09:07:48;;;;;;;12.98;8.68;;;29.20;96.50;;;;;;4989526;28;20023;-77
2023/09/12 09:10:19;;;;;;;16.52;9.23;;;28.30;96.10;;;;;;4983441;28;20034;-77
2023/09/12 09:12:46;;;;;;;14.50;9.57;;;26.60;98.30;;;;;;4988105;28;20042;-77
2023/09/12 09:15:22;;;;;;;16.65;9.65;;;25.70;98.60;;;;;;4985011;28;20440;-76
2023/09/12 09:17:50;;;;;;;16.83;10.13;;;25.50;99.40;;;;;;4983805;28;20051;-77
2023/09/12 09:20:45;;;;;;;13.02;8.93;;;27.50;99.00;;;;;;4984003;28;20063;-77
2023/09/12 09:23:10;;;;;;;14.77;9.93;;;26.60;98.30;;;;;;4985700;28;20615;-76
2023/09/12 09:25:40;;;;;;;17.80;10.52;;;25.00;99.10;;;;;;4989493;28;20109;-76
2023/09/12 09:28:17;;;;;;;16.63;10.50;;;24.80;99.40;;;;;;4991012;28;20092;-76
2023/09/12 09:30:45;;;;;;;14.02;9.25;;;24.70;99.90;;;;;;4996754;28;20089;-77
2023/09/12 09:33:12;;;;;;;16.85;9.50;;;27.50;98.90;;;;;;4997993;28;20519;-77
2023/09/12 09:35:40;;;;;;;15.20;10.13;;;29.10;96.20;;;;;;4990140;28;20037;-76
2023/09/12 09:38:06;;;;;;;17.45;9.70;;;29.50;96.50;;;;;;4997229;28;20100;-77
2023/09/12 09:40:33;;;;;;;14.63;10.30;;;30.30;95.30;;;;;;5005586;28;20080;-76
2023/09/12 09:43:00;;;;;;;16.58;9.45;;;29.90;95.10;;;;;;5000440;28;20030;-77
2023/09/12 09:45:27;;;;;;;21.13;10.73;;;29.90;95.20;;;;;;4996335;28;20113;-77
2023/09/12 09:47:57;;;;;;;18.08;10.23;;;28.40;96.30;;;;;;4997019;28;20077;-76
2023/09/12 09:50:23;;;;;;;16.65;10.57;;;27.70;96.30;;;;;;4997772;28;20034;-77
2023/09/12 09:52:54;;;;;;;17.10;9.98;;;27.40;97.40;;;;;;5000009;28;20145;-76
2023/09/12 09:55:20;;;;;;;17.00;10.27;;;26.60;97.50;;;;;;4997835;28;20457;-76
2023/09/12 09:57:48;;;;;;;13.35;10.25;;;25.80;98.30;;;;;;4998457;28;20062;-76
2023/09/12 10:00:14;;;;;;;17.13;11.32;;;25.10;98.90;;;;;;4991283;28;20029;-75
2023/09/12 10:02:42;;;;;;;16.58;10.48;;;24.80;99.00;;;;;;4999504;28;20037;-76
2023/09/12 10:05:10;;;;;;;17.33;9.32;;;24.70;98.80;;;;;;5005165;28;20677;-76
2023/09/12 10:07:38;;;;;;;16.27;9.95;;;24.60;98.90;;;;;;4992485;28;20045;-76
2023/09/12 10:10:04;;;;;;;12.45;10.05;;;24.90;99.30;;;;;;4991477;28;20029;-76
2023/09/12 10:12:36;;;;;;;18.88;11.13;;;25.00;99.80;;;;;;4991225;28;20030;-75
2023/09/12 10:15:04;;;;;;;14.95;10.32;;;25.10;99.20;;;;;;4992555;28;20037;-75
2023/09/12 10:17:37;;;;;;;16.35;9.90;;;25.00;99.00;;;;;;4988008;28;20134;-76
2023/09/12 10:20:09;;;;;;;14.53;10.27;;;24.70;99.00;;;;;;4993366;28;20023;-75
2023/09/12 10:22:41;;;;;;;14.77;10.07;;;24.90;99.90;;;;;;4988160;28;20026;-76
2023/09/12 10:25:08;;;;;;;13.45;9.18;;;25.30;99.90;;;;;;4994139;28;20029;-76
2023/09/12 10:27:34;;;;;;;14.27;11.13;;;25.40;98.70;;;;;;4986762;28;20033;-76
2023/09/12 10:30:02;;;;;;;14.43;10.05;;;25.40;98.60;;;;;;4990901;28;20030;-76
2023/09/12 10:32:30;;;;;;;15.90;10.57;;;25.40;98.70;;;;;;4988540;28;20511;-76
2023/09/12 10:34:58;;;;;;;13.32;10.18;;;25.50;99.10;;;;;;4990852;28;20057;-76
2023/09/12 10:37:26;;;;;;;13.48;10.63;;;25.40;98.70;;;;;;4990659;28;20034;-76
2023/09/12 10:39:57;;;;;;;13.63;9.70;;;25.40;99.00;;;;;;4987112;28;20073;-75
2023/09/12 10:42:25;;;;;;;17.00;9.95;;;25.40;99.30;;;;;;4992607;28;20030;-76
2023/09/12 10:44:51;;;;;;;15.30;10.45;;;25.40;99.00;;;;;;4994977;28;21008;-76
2023/09/12 10:47:18;;;;;;;20.73;12.02;;;25.50;99.80;;;;;;4994145;28;20018;-76
2023/09/12 10:49:44;;;;;;;14.35;10.23;;;25.80;99.30;;;;;;4987019;28;20121;-76
2023/09/12 10:52:11;;;;;;;16.42;9.88;;;25.70;98.70;;;;;;4991729;28;20026;-76
2023/09/12 10:54:40;;;;;;;28.02;10.77;;;25.80;98.80;;;;;;4987766;28;20030;-75
2023/09/12 10:57:07;;;;;;;14.80;9.98;;;25.70;98.50;;;;;;4993309;28;20497;-76
2023/09/12 10:59:37;;;;;;;20.48;11.32;;;25.90;98.30;;;;;;4991269;28;20033;-76
2023/09/12 11:02:36;;;;;;;24.92;10.30;;;26.10;98.10;;;;;;4987374;28;20097;-76
2023/09/12 11:05:27;;;;;;;16.25;9.38;;;26.00;98.10;;;;;;4986889;28;20603;-76
2023/09/12 11:07:57;;;;;;;11.80;10.05;;;25.90;99.30;;;;;;4987688;28;20038;-75
2023/09/12 11:10:23;;;;;;;12.05;9.65;;;26.30;98.30;;;;;;4987623;28;20036;-76
2023/09/12 11:12:51;;;;;;;15.10;10.00;;;26.60;97.70;;;;;;4984339;28;20142;-76
2023/09/12 11:15:19;;;;;;;14.98;9.55;;;26.50;97.90;;;;;;4995922;28;20113;-76
2023/09/12 11:17:46;;;;;;;14.02;9.60;;;26.90;98.00;;;;;;4984409;28;20165;-76
2023/09/12 11:20:13;;;;;;;21.85;9.82;;;27.10;97.40;;;;;;4983219;28;20027;-76
2023/09/12 11:22:43;;;;;;;15.90;9.95;;;27.20;97.50;;;;;;4985990;28;20053;-75
2023/09/12 11:25:26;;;;;;;15.30;9.63;;;27.00;97.10;;;;;;4985982;28;20120;-76
2023/09/12 11:27:51;;;;;;;17.42;9.93;;;26.80;97.50;;;;;;4990018;28;20018;-76
2023/09/12 11:30:20;;;;;;;15.10;10.57;;;26.90;97.00;;;;;;4986043;28;20022;-75
2023/09/12 11:32:50;;;;;;;15.60;9.82;;;27.20;97.00;;;;;;4995145;28;20041;-75
2023/09/12 11:35:16;;;;;;;15.85;9.23;;;27.30;97.50;;;;;;5000223;28;20362;-76
2023/09/12 11:38:11;;;;;;;13.02;10.63;;;27.60;96.80;;;;;;4986153;28;20038;-76
2023/09/12 11:40:37;;;;;;;15.02;9.85;;;27.50;96.40;;;;;;4978547;28;20034;-76
2023/09/12 11:43:03;;;;;;;12.65;9.57;;;27.30;96.80;;;;;;4991070;28;20380;-76
2023/09/12 11:45:29;;;;;;;12.43;9.73;;;27.50;96.80;;;;;;4986294;28;20380;-76
2023/09/12 11:47:55;;;;;;;15.32;9.55;;;27.50;96.80;;;;;;4991350;28;20030;-76
2023/09/12 11:50:36;;;;;;;14.32;9.63;;;27.50;97.50;;;;;;4988895;28;20037;-76
2023/09/12 11:53:11;;;;;;;13.65;9.38;;;27.50;97.10;;;;;;4985370;28;20061;-76
2023/09/12 11:55:43;;;;;;;12.93;10.25;;;27.50;97.10;;;;;;4985392;28;20026;-75
2023/09/12 11:58:08;;;;;;;19.90;10.95;;;27.70;97.20;;;;;;4982269;28;20042;-76
2023/09/12 12:00:34;;;;;;;15.48;11.18;;;27.80;97.60;;;;;;4983230;28;20128;-76
2023/09/12 12:03:00;;;;;;;18.05;11.02;;;27.50;97.10;;;;;;4988767;28;20065;-76
2023/09/12 12:05:26;;;;;;;14.93;11.18;;;27.30;97.30;;;;;;4995214;28;20038;-76
2023/09/12 12:07:52;;;;;;;28.30;10.32;;;27.40;97.80;;;;;;4982098;28;20049;-76
2023/09/12 12:10:18;;;;;;;15.05;9.93;;;27.70;97.40;;;;;;4983247;28;20484;-76
2023/09/12 12:12:46;;;;;;;16.80;10.98;;;27.80;98.10;;;;;;4993522;28;20034;-76
2023/09/12 12:15:13;;;;;;;16.20;11.75;;;28.20;98.50;;;;;;4982375;28;20089;-76
2023/09/12 12:17:42;;;;;;;14.77;11.25;;;28.10;97.30;;;;;;4983078;28;20038;-76
2023/09/12 12:20:10;;;;;;;16.02;11.40;;;28.00;98.00;;;;;;4982231;28;20140;-76
2023/09/12 12:22:39;;;;;;;14.65;11.38;;;27.80;97.40;;;;;;4981995;28;20044;-76
2023/09/12 12:25:11;;;;;;;14.40;10.38;;;27.50;97.30;;;;;;4987095;28;20038;-77
2023/09/12 12:27:41;;;;;;;14.35;12.07;;;27.50;98.20;;;;;;4987092;28;20112;-73
2023/09/12 12:30:12;;;;;;;16.75;11.60;;;27.70;98.20;;;;;;4983808;28;20120;-76
2023/09/12 12:32:42;;;;;;;14.90;11.80;;;28.00;98.20;;;;;;4989235;28;20041;-76